createdAt,value
2018-02-06T00:00:52.590Z,65.75
2018-02-06T00:01:46.960Z,65.47
2018-02-06T00:02:38.648Z,64.33
2018-02-06T00:03:31.766Z,63.92
2018-02-06T00:04:25.356Z,63.73
2018-02-06T00:05:17.544Z,64.39
2018-02-06T00:06:10.189Z,63.45
2018-02-06T00:07:07.424Z,64.77
2018-02-06T00:08:01.113Z,64.96
2018-02-06T00:08:55.282Z,66
2018-02-06T00:09:47.355Z,65.15
2018-02-06T00:10:42.659Z,65.06
2018-02-06T00:11:34.867Z,64.55
2018-02-06T00:12:27.549Z,65.59
2018-02-06T00:15:00.604Z,66.44
2018-02-06T00:15:40.345Z,67.86
2018-02-06T00:16:20.763Z,68.24
2018-02-06T00:17:01.152Z,68.24
2018-02-06T00:17:41.553Z,68.33
2018-02-06T00:18:22.025Z,69.09
2018-02-06T00:19:02.377Z,67.77
2018-02-06T00:19:42.771Z,68.18
2018-02-06T00:20:23.165Z,67.52
2018-02-06T00:21:03.599Z,67.05
2018-02-06T00:21:43.989Z,66.47
2018-02-06T00:23:38.515Z,66.95
2018-02-06T00:24:17.414Z,66.38
2018-02-06T00:24:57.811Z,65.63
2018-02-06T00:25:38.999Z,65.15
2018-02-06T00:26:19.429Z,65.34
2018-02-06T00:26:59.820Z,64.39
2018-02-06T00:27:40.177Z,63.54
2018-02-06T00:28:20.661Z,63.73
2018-02-06T00:29:01.018Z,63.73
2018-02-06T00:31:41.219Z,65.53
2018-02-06T00:32:21.652Z,64.3
2018-02-06T00:33:02.069Z,65.53
2018-02-06T00:33:42.447Z,64.58
2018-02-06T00:34:22.863Z,65.25
2018-02-06T00:35:03.264Z,66.86
2018-02-06T00:35:43.694Z,66.76
2018-02-06T00:36:24.073Z,66.95
2018-02-06T00:37:04.474Z,67.74
2018-02-06T00:37:44.874Z,65.66
2018-02-06T00:38:25.302Z,65.56
2018-02-06T00:39:05.714Z,64.9
2018-02-06T00:39:46.119Z,65.94
2018-02-06T00:40:26.520Z,65.84
2018-02-06T00:41:06.906Z,65.19
2018-02-06T00:41:47.276Z,64.81
2018-02-06T00:42:27.673Z,64.81
2018-02-06T00:43:08.050Z,63.57
2018-02-06T00:43:48.423Z,63.29
2018-02-06T00:44:28.817Z,63.2
2018-02-06T00:45:09.240Z,63.76
2018-02-06T00:45:49.667Z,64.23
2018-02-06T00:46:30.061Z,64.14
2018-02-06T00:47:10.408Z,64.46
2018-02-06T00:49:10.965Z,63.23
2018-02-06T00:49:51.344Z,62.72
2018-02-06T00:50:31.733Z,63.1
2018-02-06T00:51:12.118Z,63.01
2018-02-06T00:51:52.518Z,63.39
2018-02-06T00:52:32.877Z,63.57
2018-02-06T00:53:13.286Z,63.2
2018-02-06T00:53:53.709Z,64.14
2018-02-06T00:54:34.098Z,62.72
2018-02-06T00:55:14.494Z,63.23
2018-02-06T00:55:54.871Z,63.42
2018-02-06T00:56:35.296Z,62.28
2018-02-06T00:57:15.708Z,61.99
2018-02-06T00:57:56.115Z,62.56
2018-02-06T00:58:36.470Z,62.53
2018-02-06T00:59:16.926Z,62.53
2018-02-06T00:59:57.236Z,61.4
2018-02-06T01:00:37.608Z,62.15
2018-02-06T01:01:18.036Z,61.87
2018-02-06T01:01:58.434Z,62.91
2018-02-06T01:02:38.888Z,62.72
2018-02-06T01:03:19.272Z,63.29
2018-02-06T01:03:59.614Z,63.39
2018-02-06T01:04:40.033Z,63.95
2018-02-06T01:05:20.431Z,64.42
2018-02-06T01:06:00.821Z,63.67
2018-02-06T01:06:41.251Z,62.62
2018-02-06T01:07:21.632Z,63.23
2018-02-06T01:08:02.027Z,63.04
2018-02-06T01:08:42.425Z,62.85
2018-02-06T01:10:44.514Z,61.52
2018-02-06T01:11:24.285Z,61.52
2018-02-06T01:12:04.662Z,60.95
2018-02-06T01:12:45.079Z,60.76
2018-02-06T01:13:25.466Z,62.75
2018-02-06T01:14:05.884Z,62.37
2018-02-06T01:14:46.257Z,60.86
2018-02-06T01:15:26.645Z,60.28
2018-02-06T01:16:07.088Z,60
2018-02-06T01:16:47.458Z,59.15
2018-02-06T01:17:27.873Z,59.25
2018-02-06T01:18:08.282Z,59.08
2018-02-06T01:18:48.696Z,59.15
2018-02-06T01:19:29.070Z,58.67
2018-02-06T01:20:09.438Z,58.99
2018-02-06T01:20:49.814Z,58.8
2018-02-06T01:21:30.196Z,58.51
2018-02-06T01:22:10.644Z,58.99
2018-02-06T01:22:50.973Z,58.8
2018-02-06T01:23:31.369Z,59.18
2018-02-06T01:24:11.754Z,58.89
2018-02-06T01:24:52.126Z,58.99
2018-02-06T01:25:32.596Z,60.31
2018-02-06T01:26:12.931Z,59.08
2018-02-06T01:26:53.370Z,59.27
2018-02-06T01:27:33.831Z,58.8
2018-02-06T01:29:56.108Z,59.75
2018-02-06T01:30:33.031Z,58.89
2018-02-06T01:31:13.398Z,58.51
2018-02-06T01:31:53.826Z,58.23
2018-02-06T01:32:34.252Z,58.89
2018-02-06T01:33:14.612Z,59.05
2018-02-06T01:33:55.014Z,58.99
2018-02-06T01:34:35.484Z,58.96
2018-02-06T01:35:15.857Z,58.96
2018-02-06T01:35:56.203Z,60
2018-02-06T01:36:36.604Z,60.76
2018-02-06T01:37:16.999Z,59.63
2018-02-06T01:37:57.394Z,60.1
2018-02-06T01:38:37.849Z,60.22
2018-02-06T01:39:18.213Z,60.19
2018-02-06T01:41:36.231Z,60
2018-02-06T01:42:24.944Z,60.1
2018-02-06T01:43:07.632Z,60.95
2018-02-06T01:43:48.033Z,60.38
2018-02-06T01:44:28.392Z,60.38
2018-02-06T01:45:08.827Z,60.76
2018-02-06T01:45:49.191Z,60.76
2018-02-06T01:46:29.580Z,60.57
2018-02-06T01:47:09.984Z,59.81
2018-02-06T01:47:50.399Z,59.63
2018-02-06T01:48:30.774Z,60
2018-02-06T01:49:11.184Z,59.91
2018-02-06T01:52:48.183Z,59.05
2018-02-06T01:53:26.668Z,60.38
2018-02-06T01:54:07.045Z,59.44
2018-02-06T01:54:47.487Z,60.86
2018-02-06T01:55:27.809Z,60.47
2018-02-06T01:56:08.235Z,60.19
2018-02-06T01:56:48.600Z,60.28
2018-02-06T01:57:29.088Z,60.19
2018-02-06T01:58:09.441Z,60.86
2018-02-06T01:58:49.874Z,61.33
2018-02-06T01:59:30.291Z,60.28
2018-02-06T02:00:10.674Z,59.44
2018-02-06T02:00:51.115Z,58.77
2018-02-06T02:01:31.484Z,58.77
2018-02-06T02:02:11.877Z,58.96
2018-02-06T02:02:52.323Z,59.84
2018-02-06T02:03:32.724Z,59.27
2018-02-06T02:04:13.148Z,58.77
2018-02-06T02:04:53.497Z,58.89
2018-02-06T02:05:33.916Z,60.22
2018-02-06T02:06:14.351Z,59.56
2018-02-06T02:06:54.758Z,59.08
2018-02-06T02:07:35.078Z,59.46
2018-02-06T02:08:15.539Z,58.33
2018-02-06T02:08:55.857Z,57.66
2018-02-06T02:09:36.293Z,57.38
2018-02-06T02:10:16.674Z,56.9
2018-02-06T02:10:57.070Z,57.28
2018-02-06T02:11:37.504Z,57.38
2018-02-06T02:12:17.890Z,57.76
2018-02-06T02:12:58.283Z,57.28
2018-02-06T02:13:38.685Z,57.47
2018-02-06T02:14:19.056Z,57.28
2018-02-06T02:14:59.519Z,57.85
2018-02-06T02:15:39.927Z,57.85
2018-02-06T02:16:20.264Z,57.57
2018-02-06T02:17:00.736Z,57.19
2018-02-06T02:17:41.048Z,57.09
2018-02-06T02:18:21.465Z,57.76
2018-02-06T02:19:01.873Z,57.19
2018-02-06T02:19:42.253Z,56.99
2018-02-06T02:20:22.679Z,57.38
2018-02-06T02:21:03.025Z,57.09
2018-02-06T02:21:43.414Z,56.81
2018-02-06T02:22:23.830Z,57.66
2018-02-06T02:23:04.185Z,58.8
2018-02-06T02:23:44.583Z,59.37
2018-02-06T02:24:24.997Z,58.99
2018-02-06T02:25:05.400Z,58.42
2018-02-06T02:25:45.809Z,58.58
2018-02-06T02:26:26.225Z,58.61
2018-02-06T02:27:06.576Z,58.23
2018-02-06T02:27:46.962Z,57.95
2018-02-06T02:28:27.349Z,58.29
2018-02-06T02:29:07.777Z,58.11
2018-02-06T02:29:48.127Z,57.82
2018-02-06T02:30:28.533Z,58.04
2018-02-06T02:31:08.947Z,58.8
2018-02-06T02:31:49.389Z,58.96
2018-02-06T02:32:29.780Z,58.67
2018-02-06T02:33:10.210Z,58.11
2018-02-06T02:33:50.553Z,59.63
2018-02-06T02:34:30.953Z,59.44
2018-02-06T02:35:11.430Z,59.34
2018-02-06T02:35:51.793Z,59.25
2018-02-06T02:36:32.196Z,59.05
2018-02-06T02:37:12.580Z,58.77
2018-02-06T02:37:52.968Z,58.29
2018-02-06T02:38:33.364Z,58.39
2018-02-06T02:39:13.749Z,58.77
2018-02-06T02:39:54.140Z,58.86
2018-02-06T02:40:34.575Z,60
2018-02-06T02:41:15.009Z,59.63
2018-02-06T04:42:04.452Z,64.9
2018-02-06T04:42:44.815Z,64.61
2018-02-06T04:43:25.146Z,66.41
2018-02-06T04:44:05.559Z,65
2018-02-06T04:44:45.933Z,64.04
2018-02-06T04:47:03.605Z,66.51
2018-02-06T04:47:44.021Z,68.4
2018-02-06T04:48:24.375Z,67.08
2018-02-06T04:49:04.744Z,67.36
2018-02-06T04:49:45.212Z,65.47
2018-02-06T04:50:25.561Z,66.13
2018-02-06T04:51:05.988Z,65.75
2018-02-06T04:51:46.424Z,66.32
2018-02-06T04:52:26.785Z,67.08
2018-02-06T04:53:07.157Z,66.89
2018-02-06T04:53:47.508Z,66.22
2018-02-06T04:54:27.915Z,67.18
2018-02-06T04:55:08.365Z,67.36
2018-02-06T04:55:48.735Z,65.75
2018-02-06T04:56:29.144Z,65
2018-02-06T04:57:09.606Z,65.75
2018-02-06T04:57:49.972Z,65.37
2018-02-06T04:58:30.460Z,65.37
2018-02-06T04:59:10.777Z,65.22
2018-02-06T04:59:51.176Z,65.22
2018-02-06T05:00:31.510Z,65.22
2018-02-06T05:01:11.946Z,63.32
2018-02-06T05:01:52.328Z,63.98
2018-02-06T05:02:32.678Z,64.74
2018-02-06T05:03:13.064Z,64.84
2018-02-06T05:03:53.552Z,65.12
2018-02-06T05:04:33.913Z,65.59
2018-02-06T05:05:14.284Z,65.03
2018-02-06T05:05:54.727Z,64.84
2018-02-06T05:06:35.123Z,65.12
2018-02-06T05:07:15.459Z,64.93
2018-02-06T05:07:55.840Z,64.84
2018-02-06T05:08:36.238Z,64.46
2018-02-06T05:09:16.676Z,63.79
2018-02-06T05:09:57.082Z,63.89
2018-02-06T05:12:15.031Z,63.23
2018-02-06T05:12:55.395Z,62.94
2018-02-06T05:13:35.789Z,63.6
2018-02-06T05:14:16.149Z,64.11
2018-02-06T05:14:56.546Z,63.54
2018-02-06T05:15:36.892Z,62.59
2018-02-06T05:16:17.266Z,62.97
2018-02-06T05:16:57.648Z,63.54
2018-02-06T05:19:15.276Z,62.12
2018-02-06T05:19:55.657Z,61.93
2018-02-06T05:20:35.968Z,61.93
2018-02-06T05:21:16.356Z,62.02
2018-02-06T05:21:56.741Z,62.02
2018-02-06T05:22:37.126Z,61.36
2018-02-06T05:23:17.564Z,62.08
2018-02-06T05:23:57.973Z,62.5
2018-02-06T05:24:38.358Z,62.02
2018-02-06T05:25:18.683Z,61.8
2018-02-06T05:25:59.109Z,61.36
2018-02-06T05:26:39.507Z,61.46
2018-02-06T05:27:19.889Z,60.7
2018-02-06T05:28:00.302Z,61.83
2018-02-06T05:28:40.697Z,61.74
2018-02-06T05:29:21.034Z,60.98
2018-02-06T05:30:01.458Z,61.46
2018-02-06T05:30:41.818Z,61.27
2018-02-06T05:31:22.234Z,60.89
2018-02-06T05:32:02.652Z,60.79
2018-02-06T05:32:43.059Z,61.93
2018-02-06T05:33:23.507Z,61.55
2018-02-06T05:34:03.857Z,60.79
2018-02-06T05:36:17.058Z,61.83
2018-02-06T05:36:57.452Z,60.79
2018-02-06T05:37:37.885Z,60.7
2018-02-06T05:38:18.274Z,61.27
2018-02-06T05:40:33.006Z,60.89
2018-02-06T05:41:13.111Z,60.7
2018-02-06T05:41:53.557Z,59.94
2018-02-06T05:42:33.923Z,60.13
2018-02-06T05:43:14.335Z,60.98
2018-02-06T05:43:54.759Z,61.27
2018-02-06T05:44:35.150Z,61.46
2018-02-06T05:45:15.502Z,61.17
2018-02-06T05:45:55.988Z,59.94
2018-02-06T05:46:36.410Z,60.41
2018-02-06T05:47:16.867Z,60.03
2018-02-06T05:47:57.326Z,60.22
2018-02-06T05:48:37.772Z,61.36
2018-02-06T05:49:18.271Z,61.74
2018-02-06T05:49:58.678Z,62.02
2018-02-06T05:50:39.010Z,61.74
2018-02-06T05:51:19.867Z,60.5
2018-02-06T05:51:59.850Z,60.31
2018-02-06T05:53:47.327Z,60.31
2018-02-06T05:54:27.602Z,61.36
2018-02-06T05:55:07.967Z,62.02
2018-02-06T05:56:55.258Z,61.55
2018-02-06T05:57:35.877Z,60.79
2018-02-06T05:58:16.211Z,61.65
2018-02-06T05:58:56.571Z,61.55
2018-02-06T05:59:37.070Z,61.74
2018-02-06T06:00:17.422Z,61.65
2018-02-06T06:00:57.804Z,61.83
2018-02-06T06:01:38.236Z,60.7
2018-02-06T06:02:18.622Z,60.89
2018-02-06T06:02:59.012Z,60.31
2018-02-06T06:04:59.663Z,60.79
2018-02-06T06:05:39.260Z,60.5
2018-02-06T06:06:19.649Z,60.13
2018-02-06T06:07:00.063Z,60.03
2018-02-06T06:07:40.490Z,59.18
2018-02-06T06:08:20.930Z,58.89
2018-02-06T06:09:01.288Z,58.99
2018-02-06T06:09:41.685Z,58.89
2018-02-06T06:10:22.085Z,59.66
2018-02-06T06:11:02.472Z,59.66
2018-02-06T06:11:42.910Z,58.8
2018-02-06T06:12:23.286Z,59.46
2018-02-06T06:13:03.720Z,59.94
2018-02-06T06:13:44.479Z,59.75
2018-02-06T06:14:25.185Z,59.46
2018-02-06T06:15:05.519Z,58.89
2018-02-06T06:17:23.117Z,58.51
2018-02-06T06:18:04.958Z,58.7
2018-02-06T06:18:45.440Z,59.46
2018-02-06T06:19:25.839Z,60.13
2018-02-06T06:20:06.228Z,59.66
2018-02-06T06:21:59.168Z,60.6
2018-02-06T06:22:41.005Z,60.03
2018-02-06T06:23:21.394Z,59.27
2018-02-06T06:24:01.768Z,60.31
2018-02-06T06:24:42.167Z,59.46
2018-02-06T06:25:22.577Z,59.84
2018-02-06T06:26:02.993Z,60.03
2018-02-06T06:27:59.772Z,58.89
2018-02-06T06:28:38.978Z,58.14
2018-02-06T06:29:19.357Z,58.04
2018-02-06T06:29:59.766Z,59.08
2018-02-06T06:30:40.169Z,59.56
2018-02-06T06:31:20.587Z,59.18
2018-02-06T06:32:01.012Z,59.08
2018-02-06T06:32:41.405Z,60.03
2018-02-06T06:33:21.812Z,59.66
2018-02-06T06:34:02.211Z,58.7
2018-02-06T06:36:15.311Z,59.27
2018-02-06T06:36:58.060Z,59.18
2018-02-06T06:37:38.396Z,58.7
2018-02-06T06:39:26.185Z,58.99
2018-02-06T06:40:06.488Z,58.33
2018-02-06T06:40:46.902Z,58.89
2018-02-06T06:41:27.262Z,58.7
2018-02-06T06:42:07.652Z,58.42
2018-02-06T06:42:48.020Z,58.14
2018-02-06T06:43:28.435Z,59.27
2018-02-06T06:44:08.830Z,59.66
2018-02-06T06:44:50.782Z,59.46
2018-02-06T06:45:31.228Z,59.27
2018-02-06T06:46:11.659Z,59.66
2018-02-06T06:46:52.051Z,59.08
2018-02-06T06:47:32.500Z,58.04
2018-02-06T06:48:12.882Z,58.89
2018-02-06T06:48:53.294Z,59.18
2018-02-06T06:49:33.745Z,59.44
2018-02-06T06:50:14.158Z,60.76
2018-02-06T06:50:54.571Z,60.47
2018-02-06T06:51:35.277Z,60.19
2018-02-06T06:52:15.691Z,59.72
2018-02-06T06:52:56.125Z,60.28
2018-02-06T06:53:36.498Z,59.81
2018-02-06T06:54:16.960Z,60.1
2018-02-06T06:54:57.348Z,60.41
2018-02-06T06:55:37.837Z,59.66
2018-02-06T06:56:18.237Z,60.13
2018-02-06T06:56:59.076Z,59.56
2018-02-06T06:57:39.330Z,60.6
2018-02-06T06:58:19.734Z,60.31
2018-02-06T06:59:00.104Z,60.13
2018-02-06T06:59:40.518Z,60.31
2018-02-06T07:00:21.017Z,60.98
2018-02-06T07:01:01.366Z,60.22
2018-02-06T07:01:42.000Z,59.84
2018-02-06T07:05:39.480Z,58.7
2018-02-06T07:06:22.901Z,58.33
2018-02-06T07:07:03.323Z,58.14
2018-02-06T07:07:43.698Z,58.14
2018-02-06T07:09:36.530Z,58.23
2018-02-06T07:11:38.674Z,58.42
2018-02-06T07:12:19.053Z,57.76
2018-02-06T07:14:17.081Z,57.57
2018-02-06T07:14:58.546Z,56.99
2018-02-06T07:18:32.154Z,58.61
2018-02-06T07:19:12.332Z,57.66
2018-02-06T07:19:52.767Z,57.95
2018-02-06T07:20:33.178Z,57.66
2018-02-06T07:21:13.676Z,58.51
2018-02-06T07:21:54.128Z,58.23
2018-02-06T07:23:47.151Z,59.02
2018-02-06T07:24:27.508Z,58.8
2018-02-06T07:25:07.964Z,58.36
2018-02-06T07:25:48.478Z,58.83
2018-02-06T07:26:28.752Z,58.83
2018-02-06T07:27:09.122Z,57.59
2018-02-06T07:27:49.539Z,57.21
2018-02-06T07:28:29.993Z,57.4
2018-02-06T07:29:10.475Z,57.31
2018-02-06T07:29:50.796Z,57.21
2018-02-06T07:30:31.314Z,57.59
2018-02-06T07:31:11.585Z,57.31
2018-02-06T07:31:52.003Z,57.88
2018-02-06T07:32:32.367Z,57.21
2018-02-06T07:33:12.773Z,58.07
2018-02-06T07:33:53.286Z,57.98
2018-02-06T07:36:12.654Z,57.21
2018-02-06T07:37:07.246Z,56.55
2018-02-06T07:38:15.693Z,57.21
2018-02-06T07:40:43.661Z,57.57
2018-02-06T07:41:23.878Z,57.85
2018-02-06T07:42:04.531Z,57.57
2018-02-06T07:42:44.941Z,58.14
2018-02-06T07:43:25.377Z,59.27
2018-02-06T07:44:06.672Z,59.56
2018-02-06T07:44:47.303Z,59.18
2018-02-06T07:45:27.730Z,58.99
2018-02-06T07:47:41.899Z,58.17
2018-02-06T07:48:24.245Z,58.17
2018-02-06T07:49:04.637Z,58.07
2018-02-06T07:49:45.014Z,57.21
2018-02-06T07:50:25.411Z,58.36
2018-02-06T07:51:05.895Z,57.98
2018-02-06T07:53:04.933Z,57.21
2018-02-06T07:53:46.507Z,56.65
2018-02-06T07:54:26.886Z,56.84
2018-02-06T07:55:07.356Z,56.46
2018-02-06T07:55:47.810Z,56.55
2018-02-06T07:56:28.363Z,56.55
2018-02-06T07:57:08.597Z,57.59
2018-02-06T07:57:49.008Z,59.02
2018-02-06T07:59:47.423Z,59.02
2018-02-06T08:00:27.642Z,58.83
2018-02-06T08:01:08.324Z,57.88
2018-02-06T08:01:48.441Z,57.21
2018-02-06T08:03:40.963Z,57.03
2018-02-06T08:04:21.309Z,57.12
2018-02-06T08:05:01.675Z,57.12
2018-02-06T08:05:42.107Z,57.12
2018-02-06T08:06:22.679Z,56.93
2018-02-06T08:07:03.443Z,56.74
2018-02-06T08:07:43.873Z,56.65
2018-02-06T08:08:24.227Z,56.17
2018-02-06T08:09:04.802Z,55.98
2018-02-06T08:09:45.276Z,56.36
2018-02-06T08:10:25.692Z,56.46
2018-02-06T08:11:06.090Z,56.74
2018-02-06T08:11:46.480Z,57.31
2018-02-06T08:12:26.888Z,56.65
2018-02-06T08:14:20.400Z,57.21
2018-02-06T08:15:00.470Z,56.55
2018-02-06T08:15:40.970Z,55.98
2018-02-06T08:16:21.415Z,56.46
2018-02-06T08:17:01.761Z,56.36
2018-02-06T08:17:42.207Z,56.55
2018-02-06T08:18:22.559Z,56.1
2018-02-06T08:19:03.047Z,55.82
2018-02-06T08:19:43.440Z,55.91
2018-02-06T08:20:23.869Z,56.49
2018-02-06T08:22:23.093Z,55.98
2018-02-06T08:24:25.075Z,55.91
2018-02-06T08:25:05.510Z,55.25
2018-02-06T08:25:45.932Z,54.97
2018-02-06T08:26:26.269Z,55.73
2018-02-06T08:27:06.701Z,55.73
2018-02-06T08:27:47.095Z,56.39
2018-02-06T08:28:27.614Z,56.01
2018-02-06T08:29:09.317Z,55.91
2018-02-06T08:29:48.908Z,55.16
2018-02-06T08:30:30.037Z,55.13
2018-02-06T08:31:10.664Z,55.44
2018-02-06T08:31:51.672Z,54.68
2018-02-06T08:32:31.751Z,55.16
2018-02-06T08:33:12.130Z,55.25
2018-02-06T08:33:52.549Z,55.41
2018-02-06T08:34:33.254Z,55.73
2018-02-06T08:35:13.563Z,55.98
2018-02-06T08:35:54.013Z,55.89
2018-02-06T08:36:34.463Z,56.27
2018-02-06T08:37:14.910Z,55.89
2018-02-06T08:37:55.346Z,55.89
2018-02-06T08:40:01.030Z,55.89
2018-02-06T08:40:54.956Z,55.7
2018-02-06T08:41:49.042Z,56.36
2018-02-06T08:42:44.338Z,56.27
2018-02-06T08:45:09.662Z,57.95
2018-02-06T08:46:04.380Z,58.07
2018-02-06T08:46:59.742Z,57.21
2018-02-06T08:48:00.839Z,57.12
2018-02-06T08:48:54.122Z,58.17
2018-02-06T08:50:04.514Z,57.76
2018-02-06T08:50:55.660Z,58.42
2018-02-06T08:56:13.873Z,60.22
2018-02-06T08:56:52.982Z,60.03
2018-02-06T08:57:33.491Z,60.13
2018-02-06T08:58:13.841Z,59.84
2018-02-06T09:02:35.906Z,58.07
2018-02-06T09:03:16.426Z,57.21
2018-02-06T09:03:56.836Z,57.03
2018-02-06T09:04:37.304Z,57.69
2018-02-06T09:05:17.739Z,57.12
2018-02-06T09:05:58.187Z,57.69
2018-02-06T09:06:38.628Z,57.62
2018-02-06T09:07:19.082Z,56.77
2018-02-06T09:07:59.578Z,56.46
2018-02-06T09:08:39.941Z,57.21
2018-02-06T09:09:20.423Z,56.96
2018-02-06T09:10:00.964Z,56.2
2018-02-06T09:10:41.373Z,55.79
2018-02-06T09:11:21.836Z,57.15
2018-02-06T09:12:02.213Z,56.55
2018-02-06T09:12:42.705Z,56.74
2018-02-06T09:13:23.086Z,56.08
2018-02-06T09:14:03.531Z,56.49
2018-02-06T09:14:43.926Z,57.21
2018-02-06T09:15:24.269Z,56.49
2018-02-06T09:16:04.812Z,56.49
2018-02-06T09:16:45.304Z,56.29
2018-02-06T09:17:25.738Z,55.25
2018-02-06T09:18:06.311Z,55.35
2018-02-06T09:18:46.695Z,55.44
2018-02-06T09:19:27.113Z,54.78
2018-02-06T09:20:08.254Z,54.97
2018-02-06T09:24:45.839Z,55.63
2018-02-06T09:25:25.874Z,56.39
2018-02-06T09:26:06.242Z,56.58
2018-02-06T09:26:46.689Z,56.58
2018-02-06T09:27:27.079Z,55.16
2018-02-06T09:28:07.506Z,55.91
2018-02-06T09:28:47.935Z,56.2
2018-02-06T09:29:28.428Z,56.1
2018-02-06T09:30:15.732Z,56.29
2018-02-06T09:30:56.426Z,56.2
2018-02-06T09:31:36.693Z,56.2
2018-02-06T09:32:17.160Z,56.58
2018-02-06T09:32:57.526Z,56.1
2018-02-06T09:33:37.999Z,55.73
2018-02-06T09:34:18.389Z,56.01
2018-02-06T09:34:58.849Z,56.1
2018-02-06T09:35:39.476Z,55.82
2018-02-06T09:36:19.713Z,55.91
2018-02-06T09:37:00.156Z,55.73
2018-02-06T09:37:40.620Z,55.44
2018-02-06T09:38:21.068Z,54.02
2018-02-06T09:40:39.188Z,56.13
2018-02-06T09:41:24.675Z,55.66
2018-02-06T09:42:05.076Z,55.85
2018-02-06T09:42:45.439Z,55.09
2018-02-06T09:43:25.852Z,55.47
2018-02-06T09:44:06.250Z,54.71
2018-02-06T09:44:46.960Z,54.39
2018-02-06T09:45:27.398Z,54.02
2018-02-06T09:46:07.708Z,54.58
2018-02-06T09:46:48.060Z,55.82
2018-02-06T09:47:28.448Z,55.54
2018-02-06T09:48:08.892Z,56.68
2018-02-06T09:48:49.294Z,56.2
2018-02-06T09:49:29.686Z,54.97
2018-02-06T09:50:10.186Z,56.1
2018-02-06T09:50:50.648Z,57.43
2018-02-06T09:51:31.031Z,58.48
2018-02-06T09:52:11.424Z,57.72
2018-02-06T09:52:52.313Z,58.29
2018-02-06T09:53:33.058Z,58.29
2018-02-06T09:54:13.347Z,57.24
2018-02-06T09:54:53.827Z,56.1
2018-02-06T09:55:34.253Z,55.91
2018-02-06T09:56:14.853Z,57.06
2018-02-06T09:56:55.189Z,57.24
2018-02-06T09:57:36.445Z,59.14
2018-02-06T09:58:16.369Z,59.43
2018-02-06T09:58:57.033Z,58.54
2018-02-06T09:59:37.531Z,58.86
2018-02-06T10:00:17.945Z,58.86
2018-02-06T10:00:58.423Z,57.4
2018-02-06T10:01:38.827Z,57.59
2018-02-06T10:02:22.968Z,58.36
2018-02-06T10:03:01.857Z,58.92
2018-02-06T10:03:42.204Z,59.4
2018-02-06T10:04:23.440Z,57.88
2018-02-06T10:05:04.943Z,59.11
2018-02-06T10:47:07.287Z,59.14
2018-02-06T10:49:29.012Z,59.84
2018-02-06T10:50:11.417Z,60.03
2018-02-06T10:52:20.012Z,59.55
2018-02-06T10:52:58.717Z,58.7
2018-02-06T10:53:39.180Z,59.27
2018-02-06T10:54:19.649Z,58.41
2018-02-06T10:55:00.055Z,59.74
2018-02-06T10:55:40.347Z,56.96
2018-02-06T10:56:20.832Z,56.77
2018-02-06T10:57:01.301Z,57.62
2018-02-06T10:57:41.664Z,60
2018-02-06T10:58:21.992Z,59.91
2018-02-06T10:59:02.473Z,59.14
2018-02-06T10:59:42.941Z,59.52
2018-02-06T11:00:24.338Z,59.97
2018-02-06T11:01:04.723Z,61.11
2018-02-06T11:01:45.253Z,59.59
2018-02-06T11:02:26.745Z,59.59
2018-02-06T11:03:07.321Z,59.08
2018-02-06T11:03:48.125Z,60.03
2018-02-06T11:04:28.781Z,60.03
2018-02-06T11:05:09.327Z,61.33
2018-02-06T11:05:50.057Z,62.28
2018-02-06T11:06:30.353Z,62.28
2018-02-06T11:07:10.707Z,62.85
2018-02-06T11:07:51.631Z,63.57
2018-02-06T11:08:32.201Z,63.76
2018-02-06T11:09:13.644Z,65.47
2018-02-06T11:09:53.289Z,66.89
2018-02-06T11:10:34.007Z,69.17
2018-02-06T11:11:14.300Z,68.44
2018-02-06T11:11:54.827Z,68.15
2018-02-06T11:12:35.155Z,67.4
2018-02-06T11:13:16.227Z,65.31
2018-02-06T11:13:56.637Z,66.26
2018-02-06T11:14:37.915Z,64.17
2018-02-06T11:15:18.424Z,63.6
2018-02-06T11:15:59.754Z,63.85
2018-02-06T11:16:41.795Z,65
2018-02-06T11:17:22.308Z,66.51
2018-02-06T11:18:03.729Z,66.22
2018-02-06T11:18:43.684Z,67.08
2018-02-06T11:19:24.654Z,68.79
2018-02-06T11:20:05.524Z,68.98
2018-02-06T11:20:46.028Z,69.2
2018-02-06T11:21:26.632Z,68.73
2018-02-06T11:22:07.207Z,65.31
2018-02-06T11:22:47.772Z,64.84
2018-02-06T11:23:28.936Z,65.31
2018-02-06T11:24:09.530Z,65.5
2018-02-06T11:24:50.694Z,64.08
2018-02-06T11:25:30.997Z,64.08
2018-02-06T11:26:11.140Z,64.46
2018-02-06T11:26:51.839Z,65.12
2018-02-06T11:27:32.350Z,65.41
2018-02-06T11:28:12.804Z,67.11
2018-02-06T11:28:55.309Z,65.22
2018-02-06T11:29:35.848Z,64.65
2018-02-06T11:30:16.474Z,64.36
2018-02-06T11:30:57.089Z,65.41
2018-02-06T11:31:37.603Z,64.36
2018-02-06T11:32:18.052Z,65.59
2018-02-06T11:32:58.487Z,66.54
2018-02-06T11:33:38.917Z,66.74
2018-02-06T11:34:19.533Z,67.96
2018-02-06T11:35:00.658Z,67.4
2018-02-06T11:35:40.350Z,66.54
2018-02-06T11:36:20.746Z,65.5
2018-02-06T11:37:01.220Z,65.25
2018-02-06T11:37:41.625Z,65.41
2018-02-06T11:38:22.055Z,64.49
2018-02-06T11:39:02.494Z,63.51
2018-02-06T11:39:42.926Z,64.78
2018-02-06T11:40:23.557Z,64.84
2018-02-06T11:41:03.996Z,65.31
2018-02-06T11:41:44.553Z,64.46
2018-02-06T11:42:25.037Z,65.5
2018-02-06T11:43:05.656Z,65.22
2018-02-06T11:43:46.146Z,66.07
2018-02-06T11:44:26.810Z,66.26
2018-02-06T11:45:07.529Z,67.05
2018-02-06T11:45:48.098Z,66.96
2018-02-06T11:46:28.492Z,65.91
2018-02-06T11:47:09.130Z,66.01
2018-02-06T11:47:49.826Z,63.92
2018-02-06T11:48:30.588Z,64.4
2018-02-06T11:49:11.144Z,64.68
2018-02-06T11:49:51.560Z,64.36
2018-02-06T11:50:32.395Z,64.36
2018-02-06T11:51:12.970Z,65.22
2018-02-06T11:51:53.488Z,65.22
2018-02-06T11:52:33.856Z,65.69
2018-02-06T11:53:14.246Z,66.45
2018-02-06T11:53:55.294Z,65.69
2018-02-06T11:54:35.788Z,65.5
2018-02-06T11:55:16.594Z,66.45
2018-02-06T11:55:57.231Z,67.36
2018-02-06T11:56:38.654Z,67.08
2018-02-06T11:57:19.125Z,67.74
2018-02-06T11:57:59.729Z,68.21
2018-02-06T11:58:40.450Z,68.88
2018-02-06T11:59:21.325Z,68.82
2018-02-06T12:00:01.809Z,69.2
2018-02-06T12:00:42.420Z,68.35
2018-02-06T12:01:23.422Z,68.63
2018-02-06T12:02:04.187Z,68.15
2018-02-06T12:02:45.180Z,66.93
2018-02-06T12:03:25.906Z,68.19
2018-02-06T12:04:06.555Z,68.19
2018-02-06T12:04:47.035Z,67.52
2018-02-06T12:05:27.999Z,64.87
2018-02-06T12:06:09.044Z,64.49
2018-02-06T12:06:49.645Z,63.92
2018-02-06T12:07:30.690Z,63.92
2018-02-06T12:08:12.189Z,62.88
2018-02-06T12:08:52.321Z,62.97
2018-02-06T12:09:32.686Z,62.97
2018-02-06T12:10:13.218Z,62.78
2018-02-06T12:10:54.066Z,63.54
2018-02-06T12:11:34.563Z,63.54
2018-02-06T12:12:15.887Z,64.9
2018-02-06T12:12:55.638Z,64.14
2018-02-06T12:13:36.236Z,65
2018-02-06T12:14:17.141Z,62.91
2018-02-06T12:14:58.476Z,61.65
2018-02-06T12:15:39.125Z,62.02
2018-02-06T12:16:19.766Z,62.78
2018-02-06T12:17:00.552Z,63.42
2018-02-06T12:17:42.284Z,63.51
2018-02-06T12:18:22.662Z,64.27
2018-02-06T12:19:02.561Z,65
2018-02-06T12:19:43.013Z,66.7
2018-02-06T12:20:23.397Z,66.99
2018-02-06T12:21:03.827Z,67.55
2018-02-06T12:21:44.310Z,67.55
2018-02-06T12:22:24.707Z,68.4
2018-02-06T12:23:05.388Z,68.5
2018-02-06T12:23:45.967Z,68.21
2018-02-06T12:24:26.509Z,68.5
2018-02-06T12:25:06.944Z,68.5
2018-02-06T12:25:47.457Z,69.92
2018-02-06T12:26:27.972Z,69.82
2018-02-06T12:27:08.376Z,69.35
2018-02-06T12:27:48.870Z,70.01
2018-02-06T12:28:29.865Z,69.45
2018-02-06T12:29:10.554Z,71.15
2018-02-06T12:29:51.243Z,70.49
2018-02-06T12:30:31.663Z,68.98
2018-02-06T12:32:19.995Z,68.5
2018-02-06T12:33:00.789Z,67.83
2018-02-06T12:33:41.086Z,68.5
2018-02-06T12:34:21.627Z,68.69
2018-02-06T12:35:02.074Z,69.07
2018-02-06T12:35:42.457Z,69.26
2018-02-06T12:36:23.006Z,69.35
2018-02-06T12:37:03.452Z,69.45
2018-02-06T12:37:44.164Z,69.17
2018-02-06T12:38:25.732Z,70.49
2018-02-06T12:39:05.379Z,71.31
2018-02-06T12:39:45.921Z,71.06
2018-02-06T12:40:26.484Z,70.36
2018-02-06T12:41:06.825Z,70.45
2018-02-06T12:41:47.567Z,71.21
2018-02-06T12:43:40.076Z,72.63
2018-02-06T12:44:21.019Z,72.53
2018-02-06T12:45:01.486Z,73.3
2018-02-06T12:45:41.891Z,73.01
2018-02-06T12:46:22.308Z,72.86
2018-02-06T12:47:02.681Z,72.67
2018-02-06T12:47:43.153Z,72.77
2018-02-06T12:48:23.562Z,71.72
2018-02-06T12:49:03.959Z,71.25
2018-02-06T12:49:44.398Z,70.97
2018-02-06T12:50:24.828Z,70.68
2018-02-06T12:54:01.924Z,72